This is the latest recevied weather packets stored in our database for station/object WA6TJQ. If no packets are shown the sender has not sent any weather packets the latest 10 day(s).
| Time | Temp. | Humidity | Pressure | Rain* | Wind** | Luminosity | Snow |
|---|---|---|---|---|---|---|---|
| 1777841638 | 11.67° C | 68% | 1008.2 hPa | 0 mm | - | - | - |
| 1777841338 | 11.67° C | 68% | 1008.2 hPa | 0 mm | - | - | - |
| 1777841038 | 11.11° C | 69% | 1008.2 hPa | 0 mm | - | - | - |
| 1777840738 | 10.56° C | 71% | 1008.1 hPa | 0 mm | - | - | - |
| 1777840438 | 10° C | 73% | 1008.2 hPa | 0 mm | - | - | - |
| 1777840137 | 10° C | 72% | 1008.3 hPa | 0 mm | - | - | - |
| 1777839837 | 10° C | 74% | 1008.3 hPa | 0 mm | - | - | - |
| 1777839537 | 10° C | 74% | 1008.3 hPa | 0 mm | - | - | - |
| 1777839237 | 10° C | 73% | 1008.3 hPa | 0 mm | - | - | - |
| 1777838937 | 10° C | 71% | 1008.5 hPa | 0 mm | - | - | - |
| 1777838637 | 10.56° C | 71% | 1008.4 hPa | 0 mm | - | - | - |
| 1777838337 | 10.56° C | 71% | 1008.3 hPa | 0 mm | - | - | - |
| 1777838037 | 10.56° C | 70% | 1008.3 hPa | 0 mm | - | - | - |
| 1777837737 | 11.11° C | 69% | 1008.4 hPa | 0 mm | - | - | - |
| 1777837438 | 11.11° C | 69% | 1008.5 hPa | 0 mm | - | - | - |
| 1777837137 | 11.11° C | 67% | 1008.6 hPa | 0 mm | - | - | - |
| 1777836837 | 11.11° C | 66% | 1008.4 hPa | 0 mm | - | - | - |
| 1777836537 | 11.67° C | 65% | 1008.6 hPa | 0 mm | - | - | - |
| 1777836237 | 12.22° C | 64% | 1008.6 hPa | 0 mm | - | - | - |
| 1777835937 | 12.22° C | 63% | 1008.8 hPa | 0 mm | - | - | - |
| 1777835637 | 12.78° C | 61% | 1008.8 hPa | 0 mm | - | - | - |
| 1777835337 | 13.33° C | 58% | 1008.8 hPa | 0 mm | - | - | - |
| 1777835037 | 13.89° C | 56% | 1008.6 hPa | 0 mm | - | - | - |
| 1777834737 | 13.89° C | 57% | 1008.6 hPa | 0 mm | - | - | - |
| 1777834436 | 13.89° C | 58% | 1008.7 hPa | 0 mm | - | - | - |
* Rain latest hour (hover to see other rain measurements)
** Current wind speed in m/s (hover to see current wind gust speed)